メインページ
METAR-TAF:

METAR-TAF

空港 :

オスロ空港

オスロ, ノルウェー

緯度: 60-12N, 経度: 011-05E, 海抜: 208m

現時点の気象観測

当レポートは29分前の12:50(UTC)に作成
の風 13kt、南/南東から南西の間で変化する
気温 14°C
湿度 77%
気圧 1008 hPa
視程10km以上
高度2300ftの千切れ雲あり

METAR: ENGM 181250Z 19013KT 160V220 9999 BKN023 14/10 Q1008 NOSIG

時間: 15:19 (13:19 UTC)

予報

予報は18日の 12時(UTC)から 19日の 12時(UTC)まで有効
南/南西の風 15kt
視程10km以上
高度1500ftの雲はほとんどない
高度5000ftの千切れ雲あり
確率 40%
18日の 15時(UTC)から 18日の 24時(UTC)まで
視程: 4000m
高度600ftの千切れ雲あり
小雨, 霧雨, 靄
18日の 16時(UTC)から 18日の 20時(UTC)まで徐々に
の風 5kt
確率 40% :
19日の 08時(UTC)から 19日の 10時(UTC)まで一時的に
西/南西の風 10kt、最大20ktの突風を伴う

TAF: ENGM 1812/1912 21015KT 9999 FEW015 BKN050 PROB40 1815/1824 4000 -RADZ BR BKN006 BECMG 1816/1820 18005KT PROB40 TEMPO 1908/1910 24010G20KT

4,000以上の空港の気象観測と天気予報(METAR報とTAF報)

利用可能な観測所は地図上に黄色い丸と赤い丸で示す。

丸の上にカーソルを重ねると観測所名を参照できる。

次にクリックすると気象観測と天気予報を参照できる。

マップの切り替え:黒色「×」印の緑ボタンをクリックして拡大、「-」印の緑ボタンをクリックして縮小、緑色の三角印をクリックして隣りの地図に切り替え


METAR-TAF: